Data for 11/01/2005

Time Sea-Level Adjusted Pressure Absolute Pressure Temperature Relative Humidity Dew Point   
(mb) (inHg) (mb) (inHg) (C) (F) (%) (C) (F)
00:05 1019 30.09 848 25.04 11.8 53.2 46 0.7 33.3
00:10 1019 30.09 848 25.04 12 53.6 46 0.8 33.4
00:15 1019 30.09 849 25.07 12.1 53.8 46 0.8 33.4
00:20 1019 30.09 849 25.07 12.1 53.7 46 1 33.8
00:25 1019 30.09 849 25.07 12 53.7 46 0.7 33.3
00:30 1019 30.09 848 25.04 12.1 53.8 46 0.9 33.6
00:35 1019 30.09 848 25.04 12.1 53.7 46 1 33.8
00:40 1019 30.09 848 25.04 12.1 53.8 46 0.8 33.5
00:45 1019 30.09 849 25.07 12.2 54 46 0.9 33.6
00:50 1019 30.09 849 25.07 12.2 54 46 0.9 33.7
00:55 1019 30.09 849 25.07 12.2 53.9 46 1 33.8
01:00 1019 30.09 849 25.07 12.1 53.8 46 0.9 33.6
01:05 1019 30.09 849 25.07 12.1 53.8 46 0.9 33.6
01:10 1020 30.12 849 25.07 12.1 53.7 46 0.8 33.4
01:15 1020 30.12 849 25.07 12.1 53.8 46 0.9 33.7
01:20 1020 30.12 849 25.07 12.1 53.9 46 0.8 33.5
01:25 1020 30.12 849 25.07 12.2 54 46 0.9 33.6
01:30 1020 30.12 849 25.07 12.3 54.1 45 0.8 33.4
01:35 1020 30.12 849 25.07 12.3 54.1 45 0.8 33.4
01:40 1020 30.12 849 25.07 12.2 54 45 0.7 33.3
01:45 1020 30.12 849 25.07 12.2 54 45 0.7 33.2
01:50 1020 30.12 849 25.07 12.3 54.1 45 0.6 33.1
01:55 1020 30.12 849 25.07 12.3 54.1 45 0.7 33.2
02:00 1020 30.12 849 25.07 12.2 54 45 0.6 33.1
02:05 1020 30.12 849 25.07 12.2 53.9 45 0.7 33.2
02:10 1020 30.12 849 25.07 12.2 53.9 45 0.6 33.2
02:15 1020 30.12 849 25.07 12.1 53.8 45 0.6 33
02:20 1020 30.12 849 25.07 12.1 53.8 45 0.5 32.9
02:25 1020 30.12 849 25.07 12.1 53.7 45 0.5 32.9
02:30 1020 30.12 849 25.07 12 53.7 45 0.5 32.9
02:35 1020 30.12 849 25.07 11.9 53.4 46 0.6 33.1
02:40 1019 30.09 849 25.07 11.8 53.2 46 0.5 32.8
02:45 1019 30.09 849 25.07 11.8 53.3 45 0.4 32.8
02:50 1019 30.09 849 25.07 11.9 53.5 45 0.5 32.9
02:55 1019 30.09 849 25.07 12 53.5 45 0.3 32.6
03:00 1019 30.09 849 25.07 12 53.5 45 0.4 32.7
03:05 1019 30.09 849 25.07 11.8 53.2 46 0.5 32.9
03:10 1019 30.09 849 25.07 11.6 52.8 46 0.3 32.5
03:15 1019 30.09 849 25.07 11.5 52.8 46 0.4 32.7
03:20 1019 30.09 848 25.04 11.6 52.8 45 0.2 32.4
03:25 1019 30.09 848 25.04 11.5 52.7 46 0.3 32.6
03:30 1019 30.09 848 25.04 11.4 52.5 46 0.4 32.7
03:35 1019 30.09 848 25.04 11.4 52.5 46 0.4 32.7
03:40 1019 30.09 848 25.04 11.4 52.6 46 0.4 32.7
03:45 1019 30.09 849 25.07 11.4 52.5 47 0.5 32.8
03:50 1019 30.09 849 25.07 11.4 52.4 47 0.4 32.8
03:55 1019 30.09 848 25.04 11.2 52.2 47 0.3 32.6
04:00 1019 30.09 849 25.07 11.1 52 48 0.4 32.8
04:05 1019 30.09 849 25.07 11 51.8 48 0.4 32.7
04:10 1019 30.09 848 25.04 11 51.8 47 0.3 32.5
04:15 1019 30.09 848 25.04 11 51.9 47 0.2 32.3
04:20 1019 30.09 848 25.04 11.2 52.1 46 0.2 32.3
04:25 1019 30.09 848 25.04 11.2 52.2 46 0.1 32.3
04:30 1019 30.09 848 25.04 11.4 52.4 46 0.1 32.1
04:35 1019 30.09 848 25.04 11.4 52.5 45 0 32
04:40 1019 30.09 848 25.04 11.4 52.6 46 0.2 32.3
04:45 1019 30.09 848 25.04 11.3 52.4 46 0.1 32.1
04:50 1019 30.09 848 25.04 11.4 52.5 46 0.2 32.4
04:55 1019 30.09 848 25.04 11.3 52.3 47 0.4 32.7
05:00 1019 30.09 848 25.04 11.2 52.1 47 0.4 32.8
05:05 1019 30.09 848 25.04 11.1 52 47 0.3 32.6
05:10 1019 30.09 848 25.04 11.2 52.1 47 0.5 32.9
05:15 1019 30.09 848 25.04 11.2 52.1 47 0.4 32.8
05:20 1019 30.09 848 25.04 11.3 52.3 48 0.6 33
05:25 1019 30.09 848 25.04 11.3 52.3 48 0.8 33.5
05:30 1019 30.09 848 25.04 11 51.8 48 0.5 32.9
05:35 1019 30.09 848 25.04 11.1 51.9 48 0.6 33
05:40 1019 30.09 848 25.04 11 51.8 48 0.5 32.9
05:45 1019 30.09 848 25.04 11 51.8 48 0.4 32.7
05:50 1019 30.09 848 25.04 11 51.8 48 0.3 32.6
05:55 1019 30.09 848 25.04 11.2 52.1 47 0.5 32.8
06:00 1019 30.09 848 25.04 11.1 52 47 0.4 32.8
06:05 1019 30.09 848 25.04 11.2 52.1 47 0.3 32.5
06:10 1019 30.09 848 25.04 11.1 52 47 0.3 32.6
06:15 1019 30.09 848 25.04 11.2 52.2 45 -0.1 31.8
06:20 1019 30.09 848 25.04 11.4 52.6 45 -0.1 31.8
06:25 1019 30.09 848 25.04 11.6 52.9 44 -0.1 31.8
06:30 1019 30.09 848 25.04 11.4 52.5 45 -0 31.9
06:35 1018 30.06 848 25.04 11.4 52.4 45 -0.2 31.7
06:40 1019 30.09 848 25.04 11.5 52.7 43 -0.5 31.2
06:45 1019 30.09 848 25.04 11.7 53 44 -0.2 31.6
06:50 1018 30.06 848 25.04 11.5 52.7 44 -0.2 31.7
06:55 1018 30.06 848 25.04 11.7 53 43 -0.5 31.1
07:00 1019 30.09 848 25.04 11.7 53.1 43 -0.3 31.5
07:05 1019 30.09 848 25.04 11.6 52.8 44 -0.3 31.5
07:10 1019 30.09 848 25.04 11.5 52.8 43 -0.4 31.2
07:15 1019 30.09 848 25.04 11.6 52.9 43 -0.4 31.2
07:20 1019 30.09 848 25.04 11.8 53.2 42 -0.5 31.1
07:25 1018 30.06 848 25.04 11.9 53.3 42 -0.5 31.1
07:30 1018 30.06 848 25.04 12 53.5 42 -0.6 30.9
07:35 1018 30.06 848 25.04 12.2 53.9 42 -0.4 31.3
07:40 1018 30.06 848 25.04 12.2 53.9 42 -0.4 31.2
07:45 1018 30.06 848 25.04 12.1 53.8 42 -0.4 31.2
07:50 1018 30.06 848 25.04 11.9 53.4 44 0.1 32.1
07:55 1019 30.09 848 25.04 11.6 52.8 45 0.1 32.2
08:00 1019 30.09 848 25.04 11.5 52.8 44 -0.1 31.8
08:05 1018 30.06 848 25.04 11.7 53 44 -0.2 31.7
08:10 1018 30.06 848 25.04 11.8 53.2 43 -0.3 31.5
08:15 1018 30.06 848 25.04 12 53.6 43 -0.1 31.8
08:20 1018 30.06 848 25.04 11.9 53.5 44 0.1 32.1
08:25 1018 30.06 848 25.04 12 53.6 43 -0.1 31.9
08:30 1018 30.06 848 25.04 12.1 53.9 43 -0 31.9
08:35 1018 30.06 848 25.04 12.2 54 43 -0.1 31.9
08:40 1018 30.06 848 25.04 12.4 54.3 41 -0.6 31
08:45 1018 30.06 848 25.04 12.5 54.5 42 -0 32
08:50 1018 30.06 848 25.04 12.5 54.5 41 -0.5 31.2
08:55 1018 30.06 848 25.04 12.7 54.8 41 -0.3 31.4
09:00 1018 30.06 848 25.04 13 55.4 38 -1 30.1
09:05 1018 30.06 848 25.04 13.1 55.7 38 -0.8 30.6
09:10 1018 30.06 848 25.04 13.2 55.7 39 -0.5 31
09:15 1018 30.06 847 25.01 13.2 55.7 37 -1 30.2
09:20 1018 30.06 847 25.01 13.5 56.2 37 -0.8 30.5
09:25 1018 30.06 847 25.01 13.5 56.3 36 -1.4 29.5
09:30 1018 30.06 847 25.01 13.6 56.5 37 -0.6 30.9
09:35 1018 30.06 847 25.01 13.4 56.2 37 -0.8 30.6
09:40 1018 30.06 847 25.01 13.5 56.2 36 -1.3 29.7
09:45 1018 30.06 847 25.01 13.5 56.4 35 -1.4 29.5
09:50 1018 30.06 847 25.01 13.7 56.7 36 -1 30.2
09:55 1018 30.06 847 25.01 13.8 56.9 36 -1 30.2
10:00 1018 30.06 847 25.01 14 57.1 38 -0.1 31.8
10:05 1018 30.06 847 25.01 14.1 57.4 35 -1.2 29.8
10:10 1018 30.06 847 25.01 14 57.3 34 -1.5 29.2
10:15 1018 30.06 847 25.01 14.1 57.4 34 -1.4 29.5
10:20 1018 30.06 847 25.01 14.1 57.3 34 -1.4 29.5
10:25 1018 30.06 847 25.01 14.3 57.7 34 -1.1 30
10:30 1018 30.06 847 25.01 14.5 58.1 34 -1.2 29.9
10:35 1018 30.06 847 25.01 14.6 58.2 34 -1.2 29.9
10:40 1018 30.06 847 25.01 14.6 58.4 33 -1.4 29.5
10:45 1018 30.06 847 25.01 14.6 58.4 33 -1.2 29.9
10:50 1017 30.03 847 25.01 14.4 58 33 -1.6 29.1
10:55 1017 30.03 847 25.01 14.4 57.9 34 -1.2 29.8
11:00 1017 30.03 846 24.98 14.3 57.8 33 -1.7 29
11:05 1017 30.03 846 24.98 14.4 57.8 32 -1.8 28.7
11:10 1017 30.03 846 24.98 14.3 57.7 31 -2.6 27.3
11:15 1017 30.03 846 24.98 14.3 57.7 32 -2.3 27.9
11:20 1017 30.03 846 24.98 14.2 57.6 31 -2.5 27.4
11:25 1017 30.03 846 24.98 14.2 57.6 31 -2.5 27.6
11:30 1017 30.03 846 24.98 14.3 57.7 33 -1.7 28.9
11:35 1017 30.03 846 24.98 14.2 57.6 30 -3.2 26.2
11:40 1017 30.03 846 24.98 14.3 57.7 31 -2.7 27.2
11:45 1016 30 846 24.98 14.3 57.7 30 -2.8 27
11:50 1016 30 845 24.95 14.3 57.8 31 -2.3 27.8
11:55 1016 30 845 24.95 14.4 57.9 32 -2.2 28
12:00 1016 30 845 24.95 14.4 57.9 31 -2.3 27.9
12:05 1016 30 845 24.95 14.5 58.1 32 -2.1 28.2
12:10 1016 30 845 24.95 14.7 58.4 30 -2.7 27.2
12:15 1016 30 845 24.95 14.8 58.7 29 -2.9 26.8
12:20 1016 30 845 24.95 14.8 58.6 29 -3.1 26.4
12:25 1015 29.97 845 24.95 15 58.9 29 -2.9 26.9
12:30 1015 29.97 845 24.95 14.9 58.9 29 -2.8 26.9
12:35 1015 29.97 844 24.92 15 59 29 -2.7 27.2
12:40 1015 29.97 844 24.92 15.1 59.2 30 -2.4 27.7
12:45 1015 29.97 844 24.92 15 58.9 29 -2.7 27.1
12:50 1015 29.97 844 24.92 15 58.9 29 -2.7 27.1
12:55 1015 29.97 844 24.92 15.2 59.3 28 -3.1 26.5
13:00 1015 29.97 844 24.92 15.6 60.1 27 -3 26.6
13:05 1015 29.97 844 24.92 15.9 60.6 26 -3.5 25.7
13:10 1015 29.97 844 24.92 15.6 60 27 -3.2 26.2
13:15 1015 29.97 844 24.92 16.1 60.9 26 -3.3 26.1
13:20 1015 29.97 844 24.92 16 60.8 27 -2.8 27
13:25 1014 29.94 844 24.92 16.2 61.1 27 -3 26.6
13:30 1014 29.94 844 24.92 16.3 61.3 27 -2.8 26.9
13:35 1014 29.94 843 24.89 16.3 61.3 25 -3.5 25.7
13:40 1014 29.94 843 24.89 16.2 61.1 24 -4.1 24.6
13:45 1014 29.94 843 24.89 16.3 61.4 25 -3.5 25.8
13:50 1014 29.94 843 24.89 16.4 61.6 25 -3.4 25.9
13:55 1014 29.94 843 24.89 16.2 61.2 26 -3.4 25.9
14:00 1014 29.94 843 24.89 16.5 61.6 25 -3.5 25.7
14:05 1014 29.94 843 24.89 16.5 61.8 26 -3.1 26.5
14:10 1013 29.91 843 24.89 16.5 61.7 26 -3.1 26.4
14:15 1013 29.91 842 24.86 16.4 61.4 26 -3.3 26
14:20 1013 29.91 842 24.86 16.2 61.2 26 -3.3 26
14:25 1013 29.91 842 24.86 16.2 61.1 26 -3.2 26.3
14:30 1013 29.91 842 24.86 16.1 61 25 -3.7 25.3
14:35 1013 29.91 842 24.86 16.5 61.6 25 -3.7 25.3
14:40 1013 29.91 842 24.86 16.2 61.2 25 -3.5 25.7
14:45 1013 29.91 842 24.86 16.1 61 27 -2.9 26.9
14:50 1013 29.91 842 24.86 16 60.7 26 -3.4 25.9
14:55 1013 29.91 842 24.86 16 60.8 27 -3.1 26.5
15:00 1013 29.91 842 24.86 15.9 60.5 27 -3 26.5
15:05 1013 29.91 842 24.86 15.8 60.4 27 -3.1 26.4
15:10 1013 29.91 842 24.86 15.6 60.2 28 -3 26.7
15:15 1013 29.91 842 24.86 15.6 60 27 -3.3 26
15:20 1013 29.91 842 24.86 15.6 60.2 28 -2.7 27.1
15:25 1013 29.91 842 24.86 15.5 59.9 28 -2.9 26.8
15:30 1013 29.91 842 24.86 15.6 60 28 -3 26.6
15:35 1013 29.91 842 24.86 15.5 60 27 -3.1 26.5
15:40 1012 29.88 842 24.86 15.4 59.8 28 -2.9 26.8
15:45 1012 29.88 842 24.86 15.4 59.7 29 -2.7 27.2
15:50 1012 29.88 841 24.83 15.4 59.6 28 -2.9 26.7
15:55 1012 29.88 841 24.83 15.6 60 28 -2.8 27
16:00 1012 29.88 841 24.83 15.6 60.2 28 -2.7 27.1
16:05 1012 29.88 841 24.83 15.6 60.1 29 -2.4 27.6
16:10 1012 29.88 841 24.83 15.5 59.8 29 -2.3 27.9
16:15 1012 29.88 841 24.83 15.2 59.4 31 -1.9 28.6
16:20 1012 29.88 841 24.83 15.3 59.5 30 -2.3 27.9
16:25 1012 29.88 841 24.83 15.3 59.5 30 -2.2 28.1
16:30 1012 29.88 841 24.83 15 59 30 -2.3 27.9
16:35 1012 29.88 841 24.83 15.2 59.3 30 -2.4 27.7
16:40 1012 29.88 841 24.83 15 59 30 -2.2 28
16:45 1012 29.88 841 24.83 15.1 59.2 30 -2.2 28.1
16:50 1012 29.88 841 24.83 14.9 58.8 31 -1.9 28.6
16:55 1012 29.88 841 24.83 14.7 58.4 31 -2.3 27.8
17:00 1011 29.85 841 24.83 14.7 58.4 30 -2.5 27.4
17:05 1011 29.85 841 24.83 14.9 58.8 31 -1.9 28.5
17:10 1011 29.85 840 24.81 14.8 58.7 31 -2 28.5
17:15 1011 29.85 840 24.81 14.7 58.5 31 -2.2 28
17:20 1011 29.85 840 24.81 15 59 30 -2.5 27.6
17:25 1011 29.85 840 24.81 15 59 31 -1.9 28.6
17:30 1011 29.85 840 24.81 15 59 31 -2 28.4
17:35 1011 29.85 840 24.81 14.7 58.5 31 -2 28.4
17:40 1011 29.85 840 24.81 14.7 58.4 32 -1.7 28.9
17:45 1011 29.85 840 24.81 14.6 58.3 32 -1.8 28.7
17:50 1011 29.85 840 24.81 14.6 58.2 32 -2 28.3
17:55 1011 29.85 840 24.81 14.6 58.3 32 -1.7 29
18:00 1011 29.85 840 24.81 14.5 58.1 32 -1.7 28.9
18:05 1011 29.85 840 24.81 14.6 58.3 32 -1.7 29
18:10 1011 29.85 840 24.81 14.5 58 33 -1.6 29.1
18:15 1011 29.85 840 24.81 14.5 58.1 32 -2 28.4
18:20 1010 29.83 840 24.81 14.7 58.5 32 -1.9 28.6
18:25 1010 29.83 840 24.81 14.6 58.2 33 -1.5 29.3
18:30 1010 29.83 840 24.81 14.4 57.8 32 -1.9 28.6
18:35 1010 29.83 840 24.81 14.8 58.6 32 -1.9 28.6
18:40 1010 29.83 839 24.78 14.8 58.7 32 -1.6 29.1
18:45 1010 29.83 839 24.78 14.9 58.9 32 -1.8 28.8
18:50 1010 29.83 839 24.78 14.8 58.6 32 -1.7 28.9
18:55 1010 29.83 839 24.78 14.8 58.6 32 -1.6 29.1
19:00 1010 29.83 839 24.78 14.7 58.4 32 -1.8 28.8
19:05 1010 29.83 839 24.78 14.7 58.5 32 -1.7 28.9
19:10 1010 29.83 839 24.78 14.7 58.5 32 -1.8 28.8
19:15 1010 29.83 839 24.78 14.7 58.5 32 -1.6 29.1
19:20 1009 29.8 839 24.78 14.6 58.4 33 -1.5 29.3
19:25 1009 29.8 839 24.78 14.7 58.4 33 -1.6 29.2
19:30 1009 29.8 838 24.75 14.6 58.3 32 -1.7 28.9
19:35 1009 29.8 838 24.75 14.6 58.3 32 -1.8 28.8
19:40 1009 29.8 838 24.75 14.6 58.2 32 -1.7 28.9
19:45 1009 29.8 838 24.75 14.6 58.2 32 -1.7 29
19:50 1009 29.8 838 24.75 14.7 58.4 32 -1.8 28.7
19:55 1009 29.8 838 24.75 14.7 58.4 32 -1.6 29.2
20:00 1009 29.8 838 24.75 14.8 58.6 32 -1.6 29.1
20:05 1009 29.8 838 24.75 14.6 58.4 33 -1.5 29.3
20:10 1009 29.8 838 24.75 14.6 58.2 33 -1.4 29.6
20:15 1009 29.8 838 24.75 14.7 58.5 32 -1.5 29.2
20:20 1008 29.77 838 24.75 14.7 58.5 33 -1.5 29.3
20:25 1008 29.77 838 24.75 14.7 58.4 33 -1.4 29.5
20:30 1009 29.8 838 24.75 14.7 58.4 33 -1.6 29.2
20:35 1008 29.77 838 24.75 14.5 58 33 -1.5 29.4
20:40 1008 29.77 838 24.75 14.4 58 33 -1.8 28.8
20:45 1008 29.77 838 24.75 14.6 58.3 33 -1.5 29.2
20:50 1008 29.77 837 24.72 14.7 58.5 32 -1.6 29.2
20:55 1008 29.77 837 24.72 14.6 58.3 33 -1.5 29.3
21:00 1008 29.77 837 24.72 14.7 58.5 32 -1.5 29.2
21:05 1008 29.77 837 24.72 14.7 58.4 33 -1.5 29.2
21:10 1008 29.77 837 24.72 14.7 58.4 33 -1.4 29.5
21:15 1008 29.77 837 24.72 14.5 58.2 33 -1.3 29.6
21:20 1008 29.77 837 24.72 14.4 57.9 33 -1.4 29.5
21:25 1008 29.77 837 24.72 14.5 58 33 -1.5 29.4
21:30 1008 29.77 837 24.72 14.7 58.5 33 -1.3 29.6
21:35 1008 29.77 837 24.72 14.4 58 34 -1.1 30
21:40 1008 29.77 837 24.72 14.6 58.3 33 -1.4 29.4
21:45 1008 29.77 837 24.72 14.9 58.8 32 -1.7 29
21:50 1008 29.77 837 24.72 14.7 58.5 33 -1.3 29.7
21:55 1008 29.77 837 24.72 14.6 58.3 33 -1.2 29.8
22:00 1008 29.77 837 24.72 14.5 58 33 -1.4 29.5
22:05 1008 29.77 837 24.72 14.3 57.7 35 -1 30.2
22:10 1008 29.77 837 24.72 14.3 57.8 34 -1.4 29.6
22:15 1008 29.77 837 24.72 14.6 58.2 33 -1.4 29.4
22:20 1008 29.77 837 24.72 14.6 58.3 33 -1.2 29.8
22:25 1008 29.77 837 24.72 14.4 57.9 34 -1.2 29.8
22:30 1008 29.77 837 24.72 14.4 57.9 34 -1.2 29.8
22:35 1008 29.77 837 24.72 14.5 58.1 33 -1.4 29.4
22:40 1008 29.77 837 24.72 14.6 58.3 33 -1.3 29.6
22:45 1008 29.77 837 24.72 14.5 58 33 -1.3 29.6
22:50 1008 29.77 837 24.72 14.4 57.9 33 -1.5 29.4
22:55 1008 29.77 837 24.72 14.6 58.2 32 -1.7 29
23:00 1008 29.77 837 24.72 14.7 58.5 32 -1.6 29.2
23:05 1008 29.77 837 24.72 14.8 58.6 33 -1.4 29.4
23:10 1008 29.77 837 24.72 14.8 58.6 32 -1.6 29.2
23:15 1008 29.77 837 24.72 14.8 58.7 32 -1.4 29.5
23:20 1008 29.77 837 24.72 14.8 58.7 33 -1 30.1
23:25 1008 29.77 837 24.72 14.8 58.6 34 -0.8 30.6
23:30 1008 29.77 837 24.72 14.6 58.2 35 -0.7 30.8
23:35 1008 29.77 837 24.72 14.4 58 35 -0.8 30.6
23:40 1008 29.77 837 24.72 14.5 58 38 0.3 32.6
23:45 1008 29.77 837 24.72 14.1 57.3 39 0.6 33
23:50 1008 29.77 837 24.72 13.7 56.6 41 0.7 33.3
23:55 1008 29.77 837 24.72 13.4 56.2 41 0.4 32.7
24:00 1008 29.77 837 24.72 13.5 56.3 40 0.3 32.6